createdAt,value
2022-11-24T00:00:34.645Z,2.90
2022-11-24T00:01:34.611Z,3.00
2022-11-24T00:02:34.757Z,3.40
2022-11-24T00:03:34.695Z,3.00
2022-11-24T00:04:34.992Z,3.60
2022-11-24T00:05:34.625Z,3.10
2022-11-24T00:06:34.574Z,3.00
2022-11-24T00:07:34.702Z,3.20
2022-11-24T00:08:34.539Z,2.40
2022-11-24T00:09:34.534Z,3.10
2022-11-24T00:10:34.540Z,3.20
2022-11-24T00:11:34.531Z,3.00
2022-11-24T00:12:34.502Z,3.00
2022-11-24T00:13:34.497Z,3.10
2022-11-24T00:14:34.810Z,2.90
2022-11-24T00:15:34.462Z,3.00
2022-11-24T00:16:34.493Z,3.00
2022-11-24T00:17:34.466Z,3.30
2022-11-24T00:18:34.439Z,2.60
2022-11-24T00:19:34.427Z,2.90
2022-11-24T00:20:34.411Z,3.20
2022-11-24T00:21:34.436Z,3.20
2022-11-24T00:22:34.386Z,2.70
2022-11-24T00:23:34.384Z,3.30
2022-11-24T00:24:34.625Z,3.20
2022-11-24T00:25:34.368Z,3.20
2022-11-24T00:26:34.343Z,2.70
2022-11-24T00:27:34.337Z,3.10
2022-11-24T00:28:34.329Z,2.80
2022-11-24T00:29:34.314Z,3.40
2022-11-24T00:30:34.401Z,3.00
2022-11-24T00:31:34.395Z,3.20
2022-11-24T00:32:34.302Z,3.30
2022-11-24T00:33:34.289Z,3.30
2022-11-24T00:34:34.571Z,3.60
2022-11-24T00:35:34.251Z,3.70
2022-11-24T00:36:34.263Z,3.20
2022-11-24T00:37:34.250Z,3.50
2022-11-24T00:38:34.225Z,3.30
2022-11-24T00:39:34.210Z,3.10
2022-11-24T00:40:35.230Z,3.50
2022-11-24T00:41:34.200Z,3.60
2022-11-24T00:42:34.174Z,3.40
2022-11-24T00:43:34.173Z,3.70
2022-11-24T00:44:34.441Z,3.00
2022-11-24T00:45:41.766Z,3.60
2022-11-24T00:46:34.363Z,3.60
2022-11-24T00:47:34.134Z,3.80
2022-11-24T00:48:34.112Z,3.90
2022-11-24T00:49:34.100Z,4.30
2022-11-24T00:50:34.103Z,3.60
2022-11-24T00:51:34.081Z,3.60
2022-11-24T00:52:34.095Z,3.60
2022-11-24T00:53:34.091Z,3.60
2022-11-24T00:54:34.398Z,3.70
2022-11-24T00:55:34.040Z,3.60
2022-11-24T00:56:34.029Z,3.80
2022-11-24T00:57:34.029Z,3.30
2022-11-24T00:58:33.999Z,3.70
2022-11-24T00:59:33.996Z,3.50
2022-11-24T01:00:33.978Z,4.00
2022-11-24T01:01:34.071Z,4.00
2022-11-24T01:02:33.980Z,4.00
2022-11-24T01:03:33.962Z,4.00
2022-11-24T01:04:34.204Z,3.60
2022-11-24T01:05:33.955Z,3.60
2022-11-24T01:06:33.925Z,3.60
2022-11-24T01:07:34.010Z,3.50
2022-11-24T01:08:33.891Z,3.10
2022-11-24T01:09:33.920Z,3.50
2022-11-24T01:10:33.883Z,3.60
2022-11-24T01:11:33.880Z,3.60
2022-11-24T01:12:33.846Z,3.60
2022-11-24T01:13:33.850Z,3.20
2022-11-24T01:14:34.058Z,3.70
2022-11-24T01:15:33.842Z,3.70
2022-11-24T01:16:33.834Z,3.80
2022-11-24T01:17:33.796Z,3.80
2022-11-24T01:18:33.796Z,3.80
2022-11-24T01:19:33.801Z,4.00
2022-11-24T01:20:33.763Z,4.00
2022-11-24T01:21:33.770Z,3.80
2022-11-24T01:22:33.755Z,3.90
2022-11-24T01:23:33.732Z,4.20
2022-11-24T01:24:34.011Z,3.60
2022-11-24T01:25:33.729Z,3.80
2022-11-24T01:26:33.765Z,3.90
2022-11-24T01:27:33.707Z,4.20
2022-11-24T01:28:33.674Z,3.90
2022-11-24T01:29:33.681Z,3.90
2022-11-24T01:30:33.672Z,3.80
2022-11-24T01:31:33.679Z,3.80
2022-11-24T01:32:33.637Z,3.60
2022-11-24T01:33:33.622Z,4.20
2022-11-24T01:34:33.894Z,4.10
2022-11-24T01:35:33.605Z,4.30
2022-11-24T01:36:33.604Z,4.00
2022-11-24T01:37:33.590Z,3.70
2022-11-24T01:38:33.565Z,4.70
2022-11-24T01:39:33.568Z,3.90
2022-11-24T01:40:33.557Z,4.50
2022-11-24T01:41:33.580Z,4.70
2022-11-24T01:42:33.524Z,4.30
2022-11-24T01:43:33.521Z,3.90
2022-11-24T01:44:33.733Z,4.00
2022-11-24T01:45:33.496Z,4.20
2022-11-24T01:46:33.628Z,4.00
2022-11-24T01:47:33.481Z,3.70
2022-11-24T01:48:33.457Z,4.20
2022-11-24T01:49:33.467Z,3.90
2022-11-24T01:50:33.450Z,4.30
2022-11-24T01:51:33.442Z,4.60
2022-11-24T01:52:33.425Z,3.70
2022-11-24T01:53:33.410Z,3.70
2022-11-24T01:54:33.775Z,4.20
2022-11-24T01:55:33.405Z,3.70
2022-11-24T01:56:33.378Z,4.00
2022-11-24T01:57:33.395Z,3.80
2022-11-24T01:58:33.360Z,4.00
2022-11-24T01:59:33.353Z,4.60
2022-11-24T02:00:33.328Z,4.50
2022-11-24T02:01:33.392Z,4.10
2022-11-24T02:02:33.369Z,4.40
2022-11-24T02:03:33.300Z,3.60
2022-11-24T02:04:33.591Z,4.50
2022-11-24T02:05:33.277Z,4.20
2022-11-24T02:06:33.280Z,4.10
2022-11-24T02:07:33.346Z,3.70
2022-11-24T02:08:33.241Z,3.80
2022-11-24T02:09:33.273Z,4.20
2022-11-24T02:10:33.219Z,4.10
2022-11-24T02:11:33.214Z,3.90
2022-11-24T02:12:33.211Z,4.40
2022-11-24T02:13:33.210Z,4.20
2022-11-24T02:14:33.518Z,4.50
2022-11-24T02:15:33.226Z,4.00
2022-11-24T02:16:33.156Z,4.00
2022-11-24T02:17:33.170Z,4.30
2022-11-24T02:18:33.134Z,4.40
2022-11-24T02:19:33.130Z,4.20
2022-11-24T02:20:33.124Z,3.90
2022-11-24T02:21:33.104Z,4.20
2022-11-24T02:22:33.092Z,3.80
2022-11-24T02:23:33.094Z,4.30
2022-11-24T02:24:33.290Z,5.40
2022-11-24T02:25:33.077Z,4.10
2022-11-24T02:26:33.047Z,4.30
2022-11-24T02:27:33.055Z,3.70
2022-11-24T02:28:33.148Z,4.20
2022-11-24T02:29:33.041Z,4.50
2022-11-24T02:30:33.016Z,3.90
2022-11-24T02:31:33.061Z,4.10
2022-11-24T02:32:32.985Z,4.60
2022-11-24T02:33:32.988Z,4.80
2022-11-24T02:34:33.197Z,3.90
2022-11-24T02:35:32.964Z,3.70
2022-11-24T02:36:32.965Z,5.50
2022-11-24T02:37:32.932Z,3.80
2022-11-24T02:38:32.929Z,3.70
2022-11-24T02:39:32.913Z,4.30
2022-11-24T02:40:32.901Z,4.50
2022-11-24T02:41:32.888Z,3.90
2022-11-24T02:42:32.892Z,4.20
2022-11-24T02:43:32.884Z,4.00
2022-11-24T02:44:33.251Z,3.90
2022-11-24T02:45:32.867Z,4.20
2022-11-24T02:47:48.750Z,5.00
2022-11-24T02:48:48.738Z,4.00
2022-11-24T02:49:48.743Z,4.50
2022-11-24T02:50:48.747Z,3.60
2022-11-24T02:51:48.701Z,3.90
2022-11-24T02:52:48.689Z,4.30
2022-11-24T02:53:48.690Z,3.90
2022-11-24T02:54:48.667Z,4.20
2022-11-24T02:55:48.677Z,3.30
2022-11-24T02:56:48.663Z,3.60
2022-11-24T02:57:48.684Z,4.20
2022-11-24T02:58:48.624Z,4.00
2022-11-24T02:59:48.619Z,4.40
2022-11-24T03:00:48.639Z,3.80
2022-11-24T03:01:48.659Z,4.30
2022-11-24T03:02:48.608Z,4.10
2022-11-24T03:03:48.573Z,3.40
2022-11-24T03:04:48.569Z,4.00
2022-11-24T03:05:48.569Z,4.30
2022-11-24T03:06:48.548Z,4.10
2022-11-24T03:07:48.562Z,4.40
2022-11-24T03:08:48.536Z,3.70
2022-11-24T03:09:48.537Z,3.60
2022-11-24T03:10:48.496Z,3.70
2022-11-24T03:11:48.505Z,3.60
2022-11-24T03:12:48.488Z,3.50
2022-11-24T03:13:48.466Z,3.70
2022-11-24T03:14:48.459Z,5.50
2022-11-24T03:15:48.526Z,4.40
2022-11-24T03:16:48.480Z,3.90
2022-11-24T03:17:48.438Z,3.80
2022-11-24T03:18:48.420Z,3.40
2022-11-24T03:19:48.425Z,3.20
2022-11-24T03:20:48.388Z,3.30
2022-11-24T03:21:48.409Z,3.80
2022-11-24T03:22:48.379Z,4.20
2022-11-24T03:23:48.369Z,4.00
2022-11-24T03:24:48.343Z,3.70
2022-11-24T03:25:48.346Z,3.90
2022-11-24T03:26:48.342Z,3.70
2022-11-24T03:27:48.329Z,3.10
2022-11-24T03:28:48.311Z,4.00
2022-11-24T03:29:48.302Z,3.40
2022-11-24T03:30:48.353Z,3.80
2022-11-24T03:31:48.269Z,4.10
2022-11-24T03:32:48.278Z,3.50
2022-11-24T03:33:48.263Z,3.30
2022-11-24T03:34:48.233Z,3.50
2022-11-24T03:35:48.225Z,3.30
2022-11-24T03:36:48.219Z,2.90
2022-11-24T03:37:48.216Z,3.30
2022-11-24T03:38:48.220Z,3.30
2022-11-24T03:39:48.182Z,4.00
2022-11-24T03:40:48.183Z,3.80
2022-11-24T03:41:48.165Z,3.00
2022-11-24T03:42:48.148Z,2.80
2022-11-24T03:43:48.142Z,3.40
2022-11-24T03:44:48.135Z,3.60
2022-11-24T03:45:48.117Z,3.90
2022-11-24T03:46:48.157Z,3.60
2022-11-24T03:47:48.107Z,3.50
2022-11-24T03:48:48.104Z,3.50
2022-11-24T03:49:48.074Z,3.10
2022-11-24T03:50:48.072Z,3.30
2022-11-24T03:51:48.050Z,3.10
2022-11-24T03:52:48.036Z,3.10
2022-11-24T03:53:48.038Z,3.30
2022-11-24T03:54:48.015Z,3.80
2022-11-24T03:55:48.016Z,3.00
2022-11-24T03:56:48.019Z,3.30
2022-11-24T03:57:47.985Z,3.00
2022-11-24T03:58:47.988Z,3.30
2022-11-24T03:59:47.983Z,3.30
2022-11-24T04:00:47.980Z,3.20
2022-11-24T04:01:48.002Z,3.20
2022-11-24T04:02:48.023Z,2.90
2022-11-24T04:03:47.931Z,3.00
2022-11-24T04:04:49.807Z,3.40
2022-11-24T04:05:47.903Z,2.80
2022-11-24T04:06:47.911Z,3.30
2022-11-24T04:07:47.924Z,3.20
2022-11-24T04:08:47.872Z,3.30
2022-11-24T04:09:47.883Z,3.00
2022-11-24T04:10:47.841Z,3.30
2022-11-24T04:11:47.836Z,3.20
2022-11-24T04:12:47.832Z,2.80
2022-11-24T04:13:47.827Z,3.20
2022-11-24T04:14:47.795Z,3.30
2022-11-24T04:15:47.870Z,3.50
2022-11-24T04:16:47.788Z,3.40
2022-11-24T04:17:47.779Z,3.80
2022-11-24T04:18:47.767Z,2.90
2022-11-24T04:19:47.755Z,3.10
2022-11-24T04:20:47.750Z,3.10
2022-11-24T04:21:47.745Z,3.40
2022-11-24T04:22:47.712Z,3.20
2022-11-24T04:23:47.712Z,2.80
2022-11-24T04:24:47.707Z,3.10
2022-11-24T04:25:47.702Z,3.00
2022-11-24T04:26:47.665Z,3.00
2022-11-24T04:27:47.669Z,2.90
2022-11-24T04:28:47.646Z,3.00
2022-11-24T04:29:47.637Z,3.20
2022-11-24T04:30:47.624Z,2.60
2022-11-24T04:31:47.854Z,2.90
2022-11-24T04:32:47.635Z,3.00
2022-11-24T04:33:47.600Z,2.60
2022-11-24T04:34:47.588Z,3.30
2022-11-24T04:35:47.584Z,2.80
2022-11-24T04:36:47.578Z,3.40
2022-11-24T04:37:47.550Z,3.60
2022-11-24T04:39:19.510Z,2.90
2022-11-24T04:39:48.528Z,2.70
2022-11-24T04:40:47.547Z,3.80
2022-11-24T04:41:47.508Z,3.30
2022-11-24T04:42:47.509Z,3.00
2022-11-24T04:43:47.514Z,3.10
2022-11-24T04:44:47.473Z,3.00
2022-11-24T04:45:47.472Z,3.20
2022-11-24T04:46:47.526Z,3.10
2022-11-24T04:49:36.716Z,5.10
2022-11-24T04:50:36.693Z,3.50
2022-11-24T04:51:36.685Z,3.20
2022-11-24T04:52:36.694Z,2.80
2022-11-24T04:53:36.664Z,3.00
2022-11-24T04:54:36.667Z,3.10
2022-11-24T04:55:36.667Z,3.00
2022-11-24T04:56:36.628Z,3.30
2022-11-24T04:57:36.622Z,3.30
2022-11-24T04:58:36.650Z,3.50
2022-11-24T04:59:36.598Z,3.20
2022-11-24T05:00:36.600Z,3.20
2022-11-24T05:01:36.670Z,3.30
2022-11-24T05:02:36.562Z,3.10
2022-11-24T22:44:50.312Z,4.70
2022-11-24T22:45:50.306Z,5.80
2022-11-24T22:46:50.259Z,6.80
2022-11-24T22:47:50.262Z,7.70
2022-11-24T22:48:50.239Z,7.50
2022-11-24T22:49:50.235Z,7.40
2022-11-24T22:50:50.235Z,7.50
2022-11-24T22:51:50.229Z,7.10
2022-11-24T22:52:50.196Z,6.70
2022-11-24T22:53:50.202Z,6.40
2022-11-24T22:54:50.183Z,6.80
2022-11-24T22:55:50.154Z,6.70
2022-11-24T22:56:50.160Z,6.60
2022-11-24T22:57:52.270Z,7.10
2022-11-24T22:58:50.126Z,6.70
2022-11-24T22:59:50.137Z,6.90
2022-11-24T23:00:50.136Z,6.70
2022-11-24T23:01:50.111Z,6.30
2022-11-24T23:02:50.177Z,6.20
2022-11-24T23:03:50.140Z,7.50
2022-11-24T23:04:50.071Z,6.10
2022-11-24T23:05:50.062Z,6.30
2022-11-24T23:06:50.039Z,6.90
2022-11-24T23:07:50.082Z,5.90
2022-11-24T23:08:50.031Z,6.20
2022-11-24T23:09:50.002Z,6.00
2022-11-24T23:10:50.024Z,6.80
2022-11-24T23:11:49.992Z,6.10
2022-11-24T23:12:49.987Z,6.10
2022-11-24T23:13:49.989Z,6.20
2022-11-24T23:14:49.960Z,6.00
2022-11-24T23:15:49.939Z,6.00
2022-11-24T23:16:50.057Z,5.50
2022-11-24T23:17:49.916Z,5.60
2022-11-24T23:18:53.783Z,6.30
2022-11-24T23:19:49.907Z,5.70
2022-11-24T23:20:49.885Z,6.00
2022-11-24T23:21:49.883Z,5.40
2022-11-24T23:22:49.864Z,6.30
2022-11-24T23:23:49.868Z,6.00
2022-11-24T23:24:49.870Z,5.80
2022-11-24T23:25:49.829Z,5.20
2022-11-24T23:26:49.836Z,5.30
2022-11-24T23:27:49.809Z,5.40
2022-11-24T23:28:49.808Z,5.30
2022-11-24T23:29:49.796Z,5.40
2022-11-24T23:30:49.781Z,5.40
2022-11-24T23:31:49.844Z,5.20
2022-11-24T23:32:49.787Z,5.40
2022-11-24T23:33:49.755Z,5.40
2022-11-24T23:34:49.764Z,5.50
2022-11-24T23:35:49.720Z,5.20
2022-11-24T23:36:49.724Z,5.40
2022-11-24T23:38:07.064Z,5.40
2022-11-24T23:38:50.695Z,5.60
2022-11-24T23:39:49.675Z,5.50
2022-11-24T23:40:49.672Z,5.20
2022-11-24T23:41:49.688Z,5.00
2022-11-24T23:42:49.666Z,6.00
2022-11-24T23:43:49.664Z,5.90
2022-11-24T23:44:49.639Z,5.60
2022-11-24T23:45:49.655Z,5.50
2022-11-24T23:46:49.629Z,5.20
2022-11-24T23:47:49.591Z,5.00
2022-11-24T23:48:49.615Z,5.60
2022-11-24T23:49:49.567Z,5.70
2022-11-24T23:50:49.558Z,5.80
2022-11-24T23:51:50.272Z,6.30
2022-11-24T23:52:49.549Z,5.70
2022-11-24T23:53:49.522Z,6.40
2022-11-24T23:54:49.516Z,5.30
2022-11-24T23:55:49.517Z,5.90
2022-11-24T23:56:49.517Z,5.80
2022-11-24T23:57:49.479Z,5.90
2022-11-24T23:58:49.476Z,5.70
2022-11-24T23:59:49.473Z,5.30
